»·PEaware :: CFC412 KEUG-KRNO

CFC412 :: KEUG-KRNO

FLIGHT INFORMATION

Flight Status: Arrived
Operator:
Canadian Armed Forces
More flights by this operator :: More flights under this callsign
Pilot: Anonymous 24180 (24180)
Aircraft: AIRBUS A320
(A320)
More flights by this aircraft type
Origin: KEUG Mahlon Sweet
United States
Destination: KRNO Reno/Tahoe Intl
United States
More flights between these airports :: More routes between these airports
Route: +EUG1 LMT HARTT HARTT1
File this flight plan on PilotEdge
Remarks: RMK / SIMBRIEF
Altitude:
(Current/Filed)
37,000ft
Speed:
(Current/Filed)
461kts
Departed: 12-Nov-20 11:30 AM
Arrived: 12-Nov-20 12:21 PM
Distance/Time
Traveled:
317nm/0:51
Distance/Time
To Go:
Arrived

Flight Plot

Page will automatically refresh every two minutes.

Flight plan parsing failed; only flown route is shown


Map Options




Map Legend


Flown Route
Filed Route
Departure Airport
Arrival Airport
Navaid (VOR, NDB)
Fix

Horizontal Profiles

Position Reports

Time Latitude Longitude Heading Altitude Ground
Speed
12-Nov-20 10:58 44.119498 -123.214278 57 376ft 0kts
12-Nov-20 11:00 44.119498 -123.214278 57 376ft 0kts
12-Nov-20 11:01 44.119498 -123.214278 57 376ft 0kts
12-Nov-20 11:02 44.119498 -123.214278 57 376ft 0kts
12-Nov-20 11:03 44.119498 -123.214278 57 376ft 0kts
12-Nov-20 11:04 44.119498 -123.214278 57 376ft 0kts
12-Nov-20 11:05 44.119498 -123.214278 57 376ft 0kts
12-Nov-20 11:06 44.119498 -123.214278 57 376ft 0kts
12-Nov-20 11:07 44.119498 -123.214278 57 376ft 0kts
12-Nov-20 11:08 44.119498 -123.214278 57 376ft 0kts
12-Nov-20 11:09 44.119498 -123.214278 57 376ft 0kts
12-Nov-20 11:10 44.119498 -123.214278 57 376ft 0kts
12-Nov-20 11:11 44.119498 -123.214278 57 376ft 0kts
12-Nov-20 11:12 44.119498 -123.214278 57 376ft 0kts
12-Nov-20 11:13 44.119498 -123.214278 57 376ft 0kts
12-Nov-20 11:14 44.119498 -123.214278 57 376ft 0kts
12-Nov-20 11:15 44.119498 -123.214278 57 376ft 0kts
12-Nov-20 11:16 44.119234 -123.214556 351 376ft 2kts
12-Nov-20 11:17 44.119023 -123.214210 240 376ft 2kts
12-Nov-20 11:18 44.118775 -123.214797 263 376ft 0kts
12-Nov-20 11:19 44.118775 -123.214797 263 376ft 0kts
12-Nov-20 11:20 44.118775 -123.214797 263 376ft 0kts
12-Nov-20 11:21 44.118775 -123.214797 263 376ft 0kts
12-Nov-20 11:22 44.118978 -123.215721 311 376ft 13kts
12-Nov-20 11:23 44.123000 -123.215801 328 374ft 18kts
12-Nov-20 11:24 44.128201 -123.217115 359 370ft 24kts
12-Nov-20 11:25 44.134721 -123.217225 359 367ft 5kts
12-Nov-20 11:26 44.135285 -123.217720 274 367ft 0kts
12-Nov-20 11:27 44.135285 -123.217720 274 367ft 0kts
12-Nov-20 11:28 44.135303 -123.218259 270 367ft 8kts
12-Nov-20 11:29 44.120368 -123.218931 177 728ft 151kts
12-Nov-20 11:30 44.069190 -123.218352 180 3766ft 226kts
12-Nov-20 11:31 44.000108 -123.215505 180 7456ft 262kts
12-Nov-20 11:32 43.927124 -123.205495 157 9015ft 276kts
12-Nov-20 11:33 43.861146 -123.148958 152 9752ft 284kts
12-Nov-20 11:34 43.786562 -123.085029 152 11524ft 359kts
12-Nov-20 11:35 43.696519 -123.007813 151 13728ft 393kts
12-Nov-20 11:36 43.601964 -122.927013 152 16093ft 409kts
12-Nov-20 11:37 43.503511 -122.843323 152 18209ft 423kts
12-Nov-20 11:38 43.401849 -122.757260 152 20096ft 437kts
12-Nov-20 11:39 43.296959 -122.668827 151 21801ft 450kts
12-Nov-20 11:40 43.188927 -122.578122 151 23350ft 461kts
12-Nov-20 11:41 43.078448 -122.485756 151 24772ft 472kts
12-Nov-20 11:42 42.965170 -122.391460 151 26059ft 482kts
12-Nov-20 11:43 42.849707 -122.295762 151 27199ft 490kts
12-Nov-20 11:44 42.732383 -122.198941 151 28408ft 493kts
12-Nov-20 11:45 42.615313 -122.102767 151 29713ft 493kts
12-Nov-20 11:46 42.498034 -122.006862 151 31013ft 492kts
12-Nov-20 11:47 42.381143 -121.911698 151 32271ft 492kts
12-Nov-20 11:48 42.264384 -121.817060 151 33440ft 492kts
12-Nov-20 11:49 42.148647 -121.719692 142 34568ft 494kts
12-Nov-20 11:50 42.050172 -121.590357 136 35634ft 494kts
12-Nov-20 11:51 41.952601 -121.461004 137 36629ft 493kts
12-Nov-20 11:52 41.854920 -121.332128 137 37170ft 493kts
12-Nov-20 11:53 41.757056 -121.203581 137 37172ft 493kts
12-Nov-20 11:54 41.659103 -121.075497 138 37173ft 491kts
12-Nov-20 11:55 41.561477 -120.948406 139 37182ft 489kts
12-Nov-20 11:56 41.464466 -120.822688 139 37167ft 487kts
12-Nov-20 11:57 41.367179 -120.697163 139 37158ft 487kts
12-Nov-20 11:58 41.269861 -120.572149 139 37163ft 487kts
12-Nov-20 12:00 41.172544 -120.447678 139 37169ft 487kts
12-Nov-20 12:01 41.074844 -120.323260 139 37172ft 487kts
12-Nov-20 12:02 40.977458 -120.199762 139 34694ft 488kts
12-Nov-20 12:03 40.878850 -120.075294 139 31429ft 493kts
12-Nov-20 12:04 40.759461 -119.996495 169 27740ft 484kts
12-Nov-20 12:05 40.632292 -119.955427 169 24046ft 461kts
12-Nov-20 12:06 40.510486 -119.916266 169 21216ft 445kts
12-Nov-20 12:07 40.392624 -119.878525 168 18359ft 428kts
12-Nov-20 12:08 40.279924 -119.842556 168 15896ft 401kts
12-Nov-20 12:09 40.179239 -119.810434 169 14998ft 345kts
12-Nov-20 12:10 40.092772 -119.782999 169 14279ft 300kts
12-Nov-20 12:11 40.012489 -119.767673 183 12784ft 287kts
12-Nov-20 12:12 39.936016 -119.768073 183 11866ft 261kts
12-Nov-20 12:13 39.863385 -119.768253 181 10440ft 261kts
12-Nov-20 12:14 39.793931 -119.768387 180 9378ft 229kts
12-Nov-20 12:15 39.734759 -119.768295 179 8129ft 209kts
12-Nov-20 12:16 39.684437 -119.768926 179 7896ft 150kts
12-Nov-20 12:17 39.643759 -119.768880 178 7052ft 145kts
12-Nov-20 12:17 39.609610 -119.768970 177 6450ft 148kts
12-Nov-20 12:19 39.562502 -119.769105 179 5493ft 144kts
12-Nov-20 12:19 39.529432 -119.769193 179 4835ft 140kts
12-Nov-20 12:21 39.498066 -119.769270 181 4411ft 9kts
12-Nov-20 12:21 39.497997 -119.771416 3 4411ft 5kts
12-Nov-20 12:22 39.503321 -119.771504 354 4416ft 9kts
12-Nov-20 12:23 39.504526 -119.772374 317 4417ft 0kts
12-Nov-20 12:24 39.504526 -119.772374 317 4417ft 0kts
12-Nov-20 12:25 39.504526 -119.772374 317 4417ft 0kts
12-Nov-20 12:26 39.504526 -119.772374 317 4417ft 0kts
12-Nov-20 12:27 39.504526 -119.772374 317 4417ft 0kts
12-Nov-20 12:28 39.504526 -119.772374 317 4417ft 0kts

Navigation Log

Ident Type
Flight plan parsing failed, navigation log unavailable